Time;durP1;ratioP1;P1;durP2;ratioP2;P2;SDS_P1;SDS_P2;PMS_P1;PMS_P2;Temp;Humidity;BMP_temperature;BMP_pressure;BME280_temperature;BME280_humidity;BME280_pressure;Samples;Min_cycle;Max_cycle;Signal;HPM_P1;HPM_P2
2022/01/14 00:01:30;;;;;;;56.08;25.92;;;0.60;99.90;;;;;;5029702;28;20493;-66
2022/01/14 00:03:58;;;;;;;56.20;21.70;;;0.60;99.90;;;;;;5030343;28;20057;-66
2022/01/14 00:06:26;;;;;;;55.25;25.77;;;0.70;99.90;;;;;;5032385;28;20041;-67
2022/01/14 00:09:05;;;;;;;62.45;28.23;;;0.80;99.90;;;;;;5032190;28;20045;-65
2022/01/14 00:11:44;;;;;;;88.75;28.98;;;0.80;99.90;;;;;;5030041;28;20050;-64
2022/01/14 00:16:43;;;;;;;89.80;26.90;;;0.90;99.90;;;;;;5009560;28;20489;-65
2022/01/14 00:19:11;;;;;;;93.88;27.75;;;0.90;99.90;;;;;;5021532;28;20058;-65
2022/01/14 00:21:41;;;;;;;96.32;29.27;;;0.90;99.90;;;;;;5028266;28;20049;-64
2022/01/14 00:32:18;;;;;;;309.30;34.50;;;1.00;99.90;;;;;;5010295;28;20049;-65
2022/01/14 00:34:47;;;;;;;313.10;34.75;;;1.00;99.90;;;;;;5026610;28;20041;-64
2022/01/14 00:37:16;;;;;;;344.75;41.47;;;1.00;99.90;;;;;;5030027;28;20203;-66
2022/01/14 00:39:46;;;;;;;363.58;35.53;;;1.10;99.90;;;;;;5029740;28;20038;-68
2022/01/14 00:42:14;;;;;;;328.65;42.85;;;1.10;99.90;;;;;;5029864;28;20049;-64
2022/01/14 00:44:42;;;;;;;380.13;36.90;;;1.10;99.90;;;;;;5028855;28;20540;-64
2022/01/14 00:47:10;;;;;;;250.73;32.70;;;1.10;99.90;;;;;;5010119;28;20047;-65
2022/01/14 00:49:37;;;;;;;334.42;34.70;;;1.20;99.90;;;;;;5029714;28;20049;-66
2022/01/14 00:52:06;;;;;;;198.65;32.90;;;1.20;99.90;;;;;;5029530;28;20053;-67
2022/01/14 00:54:33;;;;;;;107.50;18.95;;;1.20;99.90;;;;;;5029350;28;20045;-65
2022/01/14 00:59:38;;;;;;;160.90;27.55;;;1.20;99.90;;;;;;5029223;28;20400;-66
2022/01/14 01:02:06;;;;;;;116.40;26.95;;;1.20;99.90;;;;;;5008215;28;20050;-70
2022/01/14 01:04:37;;;;;;;114.38;23.45;;;1.20;99.90;;;;;;5021220;28;20041;-67
2022/01/14 01:07:08;;;;;;;96.05;23.77;;;1.20;99.90;;;;;;5025507;28;20045;-67
2022/01/14 01:09:38;;;;;;;88.05;25.13;;;1.20;99.90;;;;;;5028988;28;20056;-65
2022/01/14 01:14:46;;;;;;;67.88;18.73;;;1.20;99.90;;;;;;5028801;28;20057;-65
2022/01/14 01:17:15;;;;;;;119.05;22.13;;;1.20;99.90;;;;;;5009844;28;20508;-66
2022/01/14 01:19:44;;;;;;;142.90;20.65;;;1.20;99.90;;;;;;5027630;28;20045;-65
2022/01/14 01:22:12;;;;;;;71.30;17.73;;;1.20;99.90;;;;;;5028178;28;20053;-67
2022/01/14 01:25:03;;;;;;;59.47;16.70;;;1.20;99.90;;;;;;5027463;28;20037;-66
2022/01/14 01:27:37;;;;;;;174.77;24.05;;;1.20;99.90;;;;;;5029273;28;20064;-65
2022/01/14 01:30:37;;;;;;;75.05;17.02;;;1.10;99.90;;;;;;5026462;28;20064;-66
2022/01/14 01:33:05;;;;;;;33.97;13.27;;;1.10;99.90;;;;;;5011419;28;20045;-66
2022/01/14 01:35:34;;;;;;;29.23;12.88;;;1.10;99.90;;;;;;5028587;28;20052;-65
2022/01/14 01:38:02;;;;;;;32.13;13.57;;;1.00;99.90;;;;;;5027442;28;20057;-68
2022/01/14 01:40:30;;;;;;;29.20;13.60;;;0.90;99.90;;;;;;5028662;28;20386;-65
2022/01/14 01:43:02;;;;;;;33.30;14.27;;;0.90;99.90;;;;;;5028397;28;20060;-67
2022/01/14 01:45:30;;;;;;;34.35;14.63;;;0.90;99.90;;;;;;5024224;28;20054;-66
2022/01/14 01:47:58;;;;;;;36.35;16.25;;;0.80;99.90;;;;;;5013005;28;20068;-66
2022/01/14 01:50:28;;;;;;;29.55;15.15;;;0.70;99.90;;;;;;5028506;28;20421;-66
2022/01/14 01:52:56;;;;;;;38.00;18.33;;;0.60;99.90;;;;;;5010412;28;20060;-65
2022/01/14 01:55:25;;;;;;;43.38;19.75;;;0.60;99.90;;;;;;5028487;28;20076;-65
2022/01/14 01:57:53;;;;;;;45.20;18.30;;;0.60;99.90;;;;;;5028161;28;20053;-65
2022/01/14 02:00:25;;;;;;;46.33;17.98;;;0.50;99.90;;;;;;5024761;28;20054;-65
2022/01/14 02:02:54;;;;;;;46.45;18.60;;;0.50;99.90;;;;;;5026491;28;20499;-66
2022/01/14 02:05:22;;;;;;;39.22;17.05;;;0.50;99.90;;;;;;5026964;28;20045;-66
2022/01/14 02:07:51;;;;;;;33.10;16.20;;;0.40;99.90;;;;;;5028161;28;20048;-66
2022/01/14 02:10:19;;;;;;;35.78;15.30;;;0.40;99.90;;;;;;5028334;28;20053;-65
2022/01/14 02:12:50;;;;;;;41.03;16.42;;;0.30;99.90;;;;;;5028054;28;20053;-66
2022/01/14 02:23:30;;;;;;;30.27;14.80;;;0.20;99.90;;;;;;5027996;28;20485;-65
2022/01/14 02:25:58;;;;;;;35.17;15.15;;;0.20;99.90;;;;;;5027832;28;20052;-66
2022/01/14 02:28:25;;;;;;;34.90;16.08;;;0.20;99.90;;;;;;5027887;28;20041;-66
2022/01/14 02:30:53;;;;;;;33.75;15.88;;;0.20;99.90;;;;;;5024947;28;21445;-66
2022/01/14 02:33:21;;;;;;;33.58;15.85;;;0.20;99.90;;;;;;5030886;28;20049;-65
2022/01/14 02:35:50;;;;;;;31.33;15.50;;;0.20;99.90;;;;;;5030150;28;20049;-66
2022/01/14 02:38:19;;;;;;;33.42;15.93;;;0.30;99.90;;;;;;5031095;28;20052;-65
2022/01/14 02:40:48;;;;;;;35.67;15.02;;;0.40;99.90;;;;;;5030976;28;20060;-65
2022/01/14 02:43:17;;;;;;;37.90;15.37;;;0.40;99.90;;;;;;5026200;28;20057;-66
2022/01/14 02:45:50;;;;;;;34.20;14.18;;;0.40;99.90;;;;;;5030250;28;20056;-65
2022/01/14 02:48:24;;;;;;;29.77;14.65;;;0.40;99.90;;;;;;5031362;28;20429;-66
2022/01/14 02:51:01;;;;;;;32.53;13.95;;;0.50;99.90;;;;;;5029983;28;20512;-65
2022/01/14 02:56:12;;;;;;;30.13;13.70;;;0.50;99.90;;;;;;5011350;28;20065;-65
2022/01/14 02:58:42;;;;;;;36.20;15.20;;;0.50;99.90;;;;;;5011173;28;20053;-65
2022/01/14 03:01:11;;;;;;;;;;;0.50;99.90;;;;;;5011958;28;20236;-65
2022/01/14 03:03:43;;;;;;;28.88;13.15;;;0.50;99.90;;;;;;5011168;28;20292;-66
2022/01/14 03:06:13;;;;;;;31.58;13.93;;;0.50;99.90;;;;;;5009944;28;20402;-66
2022/01/14 03:08:44;;;;;;;27.33;13.05;;;0.50;99.90;;;;;;5011398;28;20052;-66
2022/01/14 03:11:23;;;;;;;35.50;14.57;;;0.40;99.90;;;;;;5013945;28;20060;-65
2022/01/14 03:13:51;;;;;;;34.13;14.23;;;0.50;99.90;;;;;;5014926;28;20046;-65
2022/01/14 03:16:20;;;;;;;32.53;14.13;;;0.50;99.90;;;;;;5013576;28;20049;-67
2022/01/14 03:18:51;;;;;;;37.22;13.38;;;0.40;99.90;;;;;;5014814;28;20410;-67
2022/01/14 03:21:28;;;;;;;26.63;12.98;;;0.40;99.90;;;;;;5014780;28;20046;-65
2022/01/14 03:26:42;;;;;;;31.30;14.07;;;0.40;99.90;;;;;;5014709;28;20046;-65
2022/01/14 03:29:09;;;;;;;31.35;13.57;;;0.40;99.90;;;;;;5014501;28;20505;-65
2022/01/14 03:31:37;;;;;;;38.20;15.48;;;0.40;99.90;;;;;;5014565;28;20057;-64
2022/01/14 03:34:05;;;;;;;38.58;15.55;;;0.40;99.90;;;;;;5014645;28;20134;-65
2022/01/14 03:36:33;;;;;;;36.17;15.43;;;0.40;99.90;;;;;;5014942;28;20053;-65
2022/01/14 03:39:02;;;;;;;29.80;13.82;;;0.40;99.90;;;;;;5014497;28;20053;-66
2022/01/14 03:41:29;;;;;;;32.53;14.23;;;0.40;99.90;;;;;;5014432;28;20038;-70
2022/01/14 03:43:57;;;;;;;34.22;13.93;;;0.50;99.90;;;;;;5014121;28;20081;-66
2022/01/14 03:46:25;;;;;;;36.67;14.85;;;0.50;99.90;;;;;;5014231;28;20038;-66
2022/01/14 03:48:53;;;;;;;37.20;15.05;;;0.50;99.90;;;;;;5014266;28;20400;-65
2022/01/14 03:51:23;;;;;;;32.10;13.20;;;0.50;99.90;;;;;;5014126;28;20045;-65
2022/01/14 03:53:51;;;;;;;30.00;14.00;;;0.50;99.90;;;;;;5014194;28;20046;-66
2022/01/14 03:56:18;;;;;;;36.45;14.38;;;0.40;99.90;;;;;;5013043;28;20046;-65
2022/01/14 03:58:46;;;;;;;35.90;14.27;;;0.40;99.90;;;;;;5012973;28;20042;-68
2022/01/14 04:01:14;;;;;;;32.35;13.23;;;0.40;99.90;;;;;;5014095;28;20050;-66
2022/01/14 04:03:42;;;;;;;28.70;13.07;;;0.40;99.90;;;;;;5014021;28;20045;-65
2022/01/14 04:06:13;;;;;;;33.85;13.32;;;0.30;99.90;;;;;;5013794;28;20532;-64
2022/01/14 04:08:42;;;;;;;32.63;14.57;;;0.30;99.90;;;;;;5012923;28;20042;-65
2022/01/14 04:11:11;;;;;;;28.10;12.67;;;0.20;99.90;;;;;;5013782;28;20046;-65
2022/01/14 04:13:52;;;;;;;46.85;14.85;;;0.20;99.90;;;;;;5013758;28;20049;-65
2022/01/14 04:16:22;;;;;;;30.42;13.32;;;0.10;99.90;;;;;;5012838;28;20053;-65
2022/01/14 04:18:50;;;;;;;;;;;0.20;99.90;;;;;;5014133;28;20061;-65
2022/01/14 04:21:19;;;;;;;24.58;13.35;;;0.10;99.90;;;;;;5012899;28;20525;-65
2022/01/14 04:23:46;;;;;;;29.92;12.93;;;0.00;99.90;;;;;;5012431;28;20502;-65
2022/01/14 04:26:15;;;;;;;23.85;12.20;;;0.00;99.90;;;;;;5013635;28;20046;-65
2022/01/14 04:28:43;;;;;;;35.08;14.57;;;0.00;99.90;;;;;;5013444;28;20490;-65
2022/01/14 04:31:10;;;;;;;34.83;13.70;;;-0.10;99.90;;;;;;5013498;28;20045;-65
2022/01/14 04:33:38;;;;;;;31.67;13.45;;;-0.10;99.90;;;;;;5013155;28;20049;-65
2022/01/14 04:36:07;;;;;;;26.92;12.60;;;-0.10;99.90;;;;;;5013382;28;20057;-65
2022/01/14 04:38:35;;;;;;;33.75;14.55;;;-0.10;99.90;;;;;;5013531;28;20131;-64
2022/01/14 04:41:03;;;;;;;33.08;13.10;;;-0.10;99.90;;;;;;5012199;28;20049;-65
2022/01/14 04:43:31;;;;;;;34.05;13.07;;;-0.10;99.90;;;;;;5012165;28;20061;-66
2022/01/14 04:48:28;;;;;;;30.05;13.18;;;-0.10;99.90;;;;;;5011958;28;20060;-65
2022/01/14 04:50:56;;;;;;;34.30;14.65;;;-0.10;99.90;;;;;;5013008;28;20060;-65
2022/01/14 04:53:24;;;;;;;34.95;14.02;;;-0.10;99.90;;;;;;5012993;28;20058;-65
2022/01/14 04:55:52;;;;;;;38.28;14.82;;;-0.10;99.90;;;;;;5013250;28;20057;-66
2022/01/14 04:58:20;;;;;;;30.88;14.70;;;-0.10;99.90;;;;;;5012886;28;20054;-65
2022/01/14 05:00:47;;;;;;;34.70;14.80;;;0.00;99.90;;;;;;5012908;28;20052;-65
2022/01/14 05:03:15;;;;;;;33.88;14.30;;;0.00;99.90;;;;;;5012950;28;20054;-66
2022/01/14 05:05:46;;;;;;;32.58;14.20;;;0.00;99.90;;;;;;5013150;28;20046;-65
2022/01/14 05:08:35;;;;;;;35.58;14.23;;;0.00;99.90;;;;;;5012657;28;20049;-64
2022/01/14 05:13:46;;;;;;;31.80;14.05;;;-0.10;99.90;;;;;;5012608;28;20057;-65
2022/01/14 05:16:14;;;;;;;31.60;13.55;;;-0.10;99.90;;;;;;5011446;28;20050;-65
2022/01/14 05:18:41;;;;;;;31.85;14.68;;;-0.10;99.90;;;;;;5012580;28;20072;-65
2022/01/14 05:21:10;;;;;;;33.08;15.45;;;-0.10;99.90;;;;;;5011286;28;20057;-65
2022/01/14 05:23:37;;;;;;;33.00;15.23;;;-0.10;99.90;;;;;;5012578;28;20485;-65
2022/01/14 05:26:05;;;;;;;35.08;14.15;;;-0.10;99.90;;;;;;5012561;28;20045;-65
2022/01/14 05:28:33;;;;;;;28.40;13.00;;;-0.10;99.90;;;;;;5012312;28;20045;-65
2022/01/14 05:31:00;;;;;;;32.78;12.52;;;-0.10;99.90;;;;;;5012508;28;20042;-66
2022/01/14 05:33:28;;;;;;;32.85;13.70;;;-0.10;99.90;;;;;;5012024;28;20063;-66
2022/01/14 05:35:55;;;;;;;44.03;15.52;;;-0.20;99.90;;;;;;5012395;28;20046;-65
2022/01/14 05:38:23;;;;;;;36.15;14.98;;;-0.20;99.90;;;;;;5010995;28;20062;-65
2022/01/14 05:40:51;;;;;;;37.53;14.93;;;-0.20;99.90;;;;;;5011025;28;20045;-66
2022/01/14 05:43:18;;;;;;;42.33;15.50;;;-0.20;99.90;;;;;;5011967;28;20042;-65
2022/01/14 05:45:46;;;;;;;41.45;15.27;;;-0.20;99.90;;;;;;5011890;28;20390;-65
2022/01/14 05:48:13;;;;;;;42.35;15.57;;;-0.30;99.90;;;;;;5009916;28;20544;-65
2022/01/14 05:50:41;;;;;;;33.88;14.88;;;-0.30;99.90;;;;;;5008934;28;20494;-65
2022/01/14 05:53:09;;;;;;;38.47;14.57;;;-0.20;99.90;;;;;;5008629;28;20053;-65
2022/01/14 05:55:36;;;;;;;35.47;14.88;;;-0.30;99.90;;;;;;5008820;28;20054;-67
2022/01/14 05:58:04;;;;;;;34.78;14.35;;;-0.30;99.90;;;;;;5017568;28;20060;-66
2022/01/14 06:00:32;;;;;;;45.58;15.25;;;-0.30;99.90;;;;;;5028396;28;20129;-65
2022/01/14 06:03:00;;;;;;;46.83;17.15;;;-0.40;99.90;;;;;;5022136;28;20057;-67
2022/01/14 06:05:33;;;;;;;36.90;15.05;;;-0.30;99.90;;;;;;5024969;28;20053;-65
2022/01/14 06:08:00;;;;;;;36.05;15.02;;;-0.30;99.90;;;;;;5007505;28;20056;-70
2022/01/14 06:10:28;;;;;;;32.70;14.23;;;-0.30;99.90;;;;;;5023792;28;20045;-65
2022/01/14 06:12:55;;;;;;;41.97;16.13;;;-0.30;99.90;;;;;;5026651;28;20049;-66
2022/01/14 06:15:23;;;;;;;33.10;14.23;;;-0.40;99.90;;;;;;5026357;28;20049;-67
2022/01/14 06:17:51;;;;;;;38.65;14.50;;;-0.40;99.90;;;;;;5020279;28;20042;-67
2022/01/14 06:20:18;;;;;;;38.55;16.70;;;-0.40;99.90;;;;;;5006452;28;20069;-67
2022/01/14 06:22:46;;;;;;;36.70;17.00;;;-0.50;99.90;;;;;;5010070;28;20523;-68
2022/01/14 06:25:14;;;;;;;46.00;17.50;;;-0.40;99.90;;;;;;5028026;28;20077;-65
2022/01/14 06:27:42;;;;;;;38.45;16.13;;;-0.40;99.90;;;;;;5027992;28;20038;-66
2022/01/14 06:30:10;;;;;;;39.72;16.88;;;-0.40;99.90;;;;;;5027180;28;20049;-67
2022/01/14 06:32:41;;;;;;;36.17;16.55;;;-0.40;99.90;;;;;;5026671;28;20080;-65
2022/01/14 06:35:11;;;;;;;37.47;15.35;;;-0.50;99.90;;;;;;5026879;28;20049;-66
2022/01/14 06:37:39;;;;;;;39.58;16.92;;;-0.50;99.90;;;;;;5027879;28;20504;-62
2022/01/14 06:40:09;;;;;;;32.20;15.07;;;-0.50;99.90;;;;;;5028083;28;20052;-62
2022/01/14 06:42:43;;;;;;;36.28;15.07;;;-0.50;99.90;;;;;;5028028;28;20048;-63
2022/01/14 06:45:12;;;;;;;33.35;14.43;;;-0.50;99.90;;;;;;5029009;28;20049;-63
2022/01/14 06:47:39;;;;;;;43.67;17.08;;;-0.60;99.90;;;;;;5030481;28;20053;-64
2022/01/14 06:50:07;;;;;;;39.25;17.73;;;-0.60;99.90;;;;;;5031962;28;20396;-63
2022/01/14 06:52:35;;;;;;;50.80;16.45;;;-0.60;99.90;;;;;;5032093;28;20049;-64
2022/01/14 06:55:04;;;;;;;49.38;17.70;;;-0.60;99.90;;;;;;5030673;28;20053;-64
2022/01/14 06:57:32;;;;;;;44.60;18.35;;;-0.70;99.90;;;;;;5031673;28;20048;-63
2022/01/14 07:00:00;;;;;;;42.38;17.42;;;-0.70;99.90;;;;;;5030327;28;20510;-63
2022/01/14 07:02:27;;;;;;;47.85;17.45;;;-0.70;99.90;;;;;;5028647;28;20041;-64
2022/01/14 07:05:00;;;;;;;39.67;17.35;;;-0.70;99.90;;;;;;5027133;28;20378;-63
2022/01/14 07:07:27;;;;;;;39.35;16.65;;;-0.70;99.90;;;;;;5030691;28;20056;-63
2022/01/14 07:09:58;;;;;;;35.50;15.68;;;-0.70;99.90;;;;;;5031921;28;20049;-64
2022/01/14 07:12:31;;;;;;;37.97;15.60;;;-0.70;99.90;;;;;;5031925;28;20049;-63
2022/01/14 07:14:59;;;;;;;47.58;17.00;;;-0.70;99.90;;;;;;5031421;28;20076;-64
2022/01/14 07:17:27;;;;;;;41.05;16.90;;;-0.80;99.90;;;;;;5031522;28;20052;-63
2022/01/14 07:19:58;;;;;;;35.17;15.88;;;-0.80;99.90;;;;;;5014055;28;20050;-65
2022/01/14 07:22:26;;;;;;;41.95;17.10;;;-0.80;99.90;;;;;;5012054;28;20049;-64
2022/01/14 07:24:53;;;;;;;44.42;16.95;;;-0.80;99.90;;;;;;5029139;28;20052;-64
2022/01/14 07:27:21;;;;;;;43.55;16.92;;;-0.80;99.90;;;;;;5029987;28;20417;-64
2022/01/14 07:29:49;;;;;;;40.58;16.75;;;-0.80;99.90;;;;;;5027209;28;20049;-64
2022/01/14 07:32:17;;;;;;;36.47;16.58;;;-0.80;99.90;;;;;;5028698;28;20049;-65
2022/01/14 07:34:45;;;;;;;40.85;18.00;;;-0.80;99.90;;;;;;5014124;28;20055;-65
2022/01/14 07:37:13;;;;;;;40.40;17.52;;;-0.80;99.90;;;;;;5012740;28;20057;-65
2022/01/14 07:39:41;;;;;;;31.38;14.65;;;-0.90;99.90;;;;;;5031023;28;20060;-64
2022/01/14 07:42:10;;;;;;;29.73;15.07;;;-0.90;99.90;;;;;;5030946;28;20052;-65
2022/01/14 07:44:40;;;;;;;34.95;14.93;;;-0.90;99.90;;;;;;5029346;28;20080;-65
2022/01/14 07:47:08;;;;;;;24.48;13.60;;;-0.90;99.90;;;;;;5026905;28;20482;-64
2022/01/14 07:49:36;;;;;;;30.17;14.63;;;-0.90;99.90;;;;;;5014587;28;20050;-64
2022/01/14 07:52:04;;;;;;;35.60;15.88;;;-0.90;99.90;;;;;;5009141;28;20073;-67
2022/01/14 07:54:32;;;;;;;36.70;14.38;;;-0.90;99.90;;;;;;5024421;28;20049;-65
2022/01/14 07:57:01;;;;;;;42.70;16.13;;;-1.00;99.90;;;;;;5027851;28;20050;-65
2022/01/14 07:59:33;;;;;;;53.95;18.35;;;-1.00;99.90;;;;;;5009149;28;20061;-65
2022/01/14 08:02:01;;;;;;;67.20;19.48;;;-0.90;99.90;;;;;;5009051;28;20038;-65
2022/01/14 08:04:34;;;;;;;81.93;19.58;;;-0.90;99.90;;;;;;5016812;28;20053;-65
2022/01/14 08:07:10;;;;;;;84.80;19.95;;;-0.90;99.90;;;;;;5006685;28;20056;-64
2022/01/14 08:09:42;;;;;;;85.43;20.13;;;-0.80;99.90;;;;;;5012371;28;20397;-65
2022/01/14 08:12:12;;;;;;;108.50;19.60;;;-0.80;99.90;;;;;;5008875;28;20065;-64
2022/01/14 08:14:40;;;;;;;123.85;24.80;;;-0.80;99.90;;;;;;5024163;28;20054;-69
2022/01/14 08:17:08;;;;;;;116.25;21.85;;;-0.80;99.90;;;;;;5028966;28;20045;-64
2022/01/14 08:19:36;;;;;;;131.65;22.83;;;-0.70;99.90;;;;;;5016312;28;20057;-65
2022/01/14 08:22:06;;;;;;;122.25;23.08;;;-0.70;99.90;;;;;;5007751;28;20049;-64
2022/01/14 08:24:36;;;;;;;136.65;22.63;;;-0.70;99.90;;;;;;5024996;28;20484;-65
2022/01/14 08:27:08;;;;;;;116.95;22.58;;;-0.60;99.90;;;;;;5027083;28;20239;-65
2022/01/14 08:29:35;;;;;;;128.90;23.95;;;-0.60;99.90;;;;;;5027038;28;20053;-66
2022/01/14 08:32:03;;;;;;;148.95;22.52;;;-0.60;99.90;;;;;;5029459;28;20477;-64
2022/01/14 08:34:34;;;;;;;86.57;21.65;;;-0.60;99.90;;;;;;5018790;28;20050;-64
2022/01/14 08:37:02;;;;;;;105.28;22.27;;;-0.50;99.90;;;;;;5010113;28;20042;-64
2022/01/14 08:39:30;;;;;;;94.35;21.50;;;-0.50;99.90;;;;;;5010341;28;20413;-67
2022/01/14 08:41:58;;;;;;;121.50;23.17;;;-0.50;99.90;;;;;;5010361;28;20053;-65
2022/01/14 08:44:26;;;;;;;150.10;22.40;;;-0.50;99.90;;;;;;5022565;28;20049;-65
2022/01/14 08:46:55;;;;;;;154.45;23.38;;;-0.50;99.90;;;;;;5029887;28;20053;-69
2022/01/14 08:49:23;;;;;;;154.18;22.75;;;-0.50;99.90;;;;;;5020794;28;20053;-67
2022/01/14 08:51:51;;;;;;;166.05;22.02;;;-0.50;99.90;;;;;;5012542;28;20050;-68
2022/01/14 08:54:19;;;;;;;152.38;21.98;;;-0.50;99.90;;;;;;5023917;28;20132;-68
2022/01/14 08:56:47;;;;;;;188.30;21.35;;;-0.50;99.90;;;;;;5030017;28;20060;-68
2022/01/14 08:59:16;;;;;;;136.23;23.90;;;-0.50;99.90;;;;;;5029706;28;20049;-65
2022/01/14 09:01:44;;;;;;;;;;;-0.50;99.90;;;;;;5027306;28;20053;-66
2022/01/14 09:04:12;;;;;;;103.20;20.33;;;-0.50;99.90;;;;;;5027228;28;19929;-67
2022/01/14 09:06:39;;;;;;;78.30;21.20;;;-0.40;99.90;;;;;;5020434;28;20052;-66
2022/01/14 09:09:07;;;;;;;125.30;21.92;;;-0.40;99.90;;;;;;5028361;28;20543;-66
2022/01/14 09:11:35;;;;;;;120.35;22.52;;;-0.40;99.90;;;;;;5024629;28;20041;-68
2022/01/14 09:14:03;;;;;;;104.43;21.65;;;-0.40;99.90;;;;;;5058680;28;20041;-64
2022/01/14 09:16:31;;;;;;;129.25;21.45;;;-0.40;99.90;;;;;;5027484;28;20455;-64
2022/01/14 09:18:59;;;;;;;98.30;20.75;;;-0.40;99.90;;;;;;5025090;28;20056;-68
2022/01/14 09:21:26;;;;;;;110.95;20.92;;;-0.40;99.90;;;;;;5027837;28;20049;-63
2022/01/14 09:24:03;;;;;;;86.28;20.70;;;-0.30;99.90;;;;;;5027424;28;20049;-68
2022/01/14 09:26:36;;;;;;;101.65;22.17;;;-0.40;99.90;;;;;;5027936;28;20053;-68
2022/01/14 09:29:05;;;;;;;78.88;21.15;;;-0.30;99.90;;;;;;5025658;28;20042;-72
2022/01/14 09:31:34;;;;;;;88.65;20.17;;;-0.30;99.90;;;;;;5027223;28;20041;-64
2022/01/14 09:34:02;;;;;;;73.28;22.13;;;-0.20;99.90;;;;;;5024442;28;20045;-65
2022/01/14 09:36:29;;;;;;;106.00;21.77;;;-0.20;99.90;;;;;;5022824;28;20053;-65
2022/01/14 09:38:58;;;;;;;122.45;22.40;;;-0.20;99.90;;;;;;5027969;28;20049;-64
2022/01/14 09:41:26;;;;;;;153.10;24.48;;;-0.10;99.90;;;;;;5043426;28;20064;-65
2022/01/14 09:43:54;;;;;;;107.00;22.48;;;-0.10;99.90;;;;;;5028233;28;20057;-64
2022/01/14 09:46:22;;;;;;;154.47;24.43;;;-0.10;99.90;;;;;;5025918;28;20052;-65
2022/01/14 09:48:50;;;;;;;129.32;23.80;;;0.10;99.90;;;;;;5020882;28;20531;-65
2022/01/14 09:51:19;;;;;;;156.93;24.17;;;0.10;99.90;;;;;;5020365;28;20056;-65
2022/01/14 09:53:47;;;;;;;219.02;25.80;;;0.10;99.90;;;;;;5025330;28;20048;-65
2022/01/14 09:56:17;;;;;;;357.98;29.63;;;0.10;99.90;;;;;;5004398;28;20057;-65
2022/01/14 09:58:49;;;;;;;325.77;30.70;;;0.20;99.90;;;;;;5024367;28;20041;-64
2022/01/14 10:01:23;;;;;;;231.00;29.50;;;0.30;99.90;;;;;;5011119;28;20046;-64
2022/01/14 10:03:55;;;;;;;235.07;26.23;;;0.30;99.90;;;;;;5017707;28;20528;-64
2022/01/14 10:06:40;;;;;;;283.40;26.63;;;0.40;99.90;;;;;;5008505;28;20508;-65
2022/01/14 10:09:17;;;;;;;278.75;30.75;;;0.40;99.90;;;;;;5024941;28;20060;-64
2022/01/14 10:11:58;;;;;;;232.70;26.27;;;0.50;99.90;;;;;;5028381;28;20049;-66
2022/01/14 10:14:26;;;;;;;289.02;26.73;;;0.50;99.90;;;;;;5028122;28;20481;-64
2022/01/14 10:16:59;;;;;;;296.45;30.65;;;0.50;99.90;;;;;;5027572;28;20056;-66
2022/01/14 10:19:29;;;;;;;254.32;28.02;;;0.50;99.90;;;;;;5023011;28;20046;-64
2022/01/14 10:21:57;;;;;;;170.23;23.95;;;0.60;99.90;;;;;;5012206;28;20045;-64
2022/01/14 10:24:30;;;;;;;130.52;21.77;;;0.60;99.90;;;;;;5027900;28;20048;-64
2022/01/14 10:27:00;;;;;;;156.55;23.88;;;0.60;99.90;;;;;;5028644;28;20389;-64
2022/01/14 10:29:31;;;;;;;185.20;26.73;;;0.60;99.90;;;;;;5031366;28;20041;-65
2022/01/14 10:32:01;;;;;;;188.73;26.42;;;0.60;99.90;;;;;;5030319;28;20049;-64
2022/01/14 10:34:29;;;;;;;248.00;32.67;;;0.70;99.90;;;;;;5028404;28;20057;-65
2022/01/14 10:37:11;;;;;;;170.30;33.28;;;0.70;99.90;;;;;;5020618;28;20044;-65
2022/01/14 10:39:47;;;;;;;217.23;31.05;;;0.80;99.90;;;;;;5031586;28;20048;-66
2022/01/14 10:42:27;;;;;;;125.68;28.52;;;0.80;99.90;;;;;;5031118;28;20061;-64
2022/01/14 10:45:18;;;;;;;145.90;25.98;;;0.80;99.90;;;;;;5031928;28;20049;-65
2022/01/14 10:47:55;;;;;;;137.25;25.70;;;0.80;99.90;;;;;;5027754;28;20075;-66
2022/01/14 10:50:26;;;;;;;150.38;25.88;;;1.00;99.90;;;;;;5022190;28;20038;-65
2022/01/14 10:52:54;;;;;;;154.07;25.23;;;1.00;99.90;;;;;;5012642;28;20053;-65
2022/01/14 10:55:34;;;;;;;134.52;23.73;;;1.10;99.90;;;;;;5028765;28;20033;-66
2022/01/14 10:58:04;;;;;;;182.45;27.48;;;1.10;99.90;;;;;;5030891;28;20064;-67
2022/01/14 11:00:50;;;;;;;141.48;24.13;;;1.10;99.90;;;;;;5031672;28;20072;-65
2022/01/14 11:03:36;;;;;;;198.05;25.88;;;1.20;99.90;;;;;;5030887;28;20040;-65
2022/01/14 11:06:22;;;;;;;148.88;24.05;;;1.30;99.90;;;;;;5016812;28;20042;-67
2022/01/14 11:09:00;;;;;;;132.65;23.05;;;1.30;99.90;;;;;;5024072;28;20056;-67
2022/01/14 11:11:31;;;;;;;145.70;25.85;;;1.30;99.90;;;;;;5031026;28;20050;-67
2022/01/14 11:14:02;;;;;;;184.60;25.90;;;1.40;99.90;;;;;;5030783;28;20052;-69
2022/01/14 11:16:30;;;;;;;121.40;24.83;;;1.50;99.90;;;;;;5033407;28;20045;-69
2022/01/14 11:19:01;;;;;;;173.15;24.27;;;1.50;99.90;;;;;;5030685;28;20570;-69
2022/01/14 11:24:25;;;;;;;177.85;26.95;;;1.70;99.90;;;;;;5021568;28;20052;-68
2022/01/14 11:27:00;;;;;;;182.65;35.33;;;1.80;99.90;;;;;;5031216;28;20053;-68
2022/01/14 11:29:34;;;;;;;115.25;24.88;;;1.80;99.90;;;;;;5030079;28;20544;-66
2022/01/14 11:32:05;;;;;;;182.13;27.52;;;1.90;99.90;;;;;;5030829;28;20045;-66
2022/01/14 11:34:42;;;;;;;197.70;25.10;;;1.90;99.90;;;;;;5029566;28;20116;-68
2022/01/14 11:37:16;;;;;;;136.43;23.20;;;2.00;99.90;;;;;;5010381;28;20061;-69
2022/01/14 11:39:59;;;;;;;127.22;24.95;;;2.00;99.90;;;;;;5030707;28;20033;-65
2022/01/14 11:42:41;;;;;;;97.63;22.85;;;2.00;99.90;;;;;;5030000;28;20053;-65
2022/01/14 11:45:13;;;;;;;152.35;23.35;;;2.10;99.90;;;;;;5030935;28;20079;-69
2022/01/14 11:47:44;;;;;;;114.68;24.10;;;2.10;99.90;;;;;;5029559;28;20088;-66
2022/01/14 11:50:35;;;;;;;129.25;23.75;;;2.20;99.90;;;;;;5025650;28;20489;-65
2022/01/14 11:53:05;;;;;;;90.10;26.70;;;2.30;99.90;;;;;;5012267;28;20512;-65
2022/01/14 11:55:35;;;;;;;100.07;21.80;;;2.30;99.90;;;;;;5030387;28;20053;-65
2022/01/14 11:58:03;;;;;;;85.20;21.90;;;2.30;99.90;;;;;;5029845;28;20049;-65
2022/01/14 12:00:41;;;;;;;104.40;24.02;;;2.40;99.90;;;;;;5030172;28;20050;-64
2022/01/14 12:03:15;;;;;;;83.97;25.75;;;2.50;99.90;;;;;;5029898;28;20049;-65
2022/01/14 12:05:53;;;;;;;71.95;23.67;;;2.50;99.90;;;;;;5021497;28;20042;-64
2022/01/14 12:08:31;;;;;;;73.13;24.10;;;2.60;99.90;;;;;;5027566;28;20052;-65
2022/01/14 12:11:08;;;;;;;118.57;24.30;;;2.70;99.90;;;;;;5030441;28;20053;-66
2022/01/14 12:13:39;;;;;;;73.65;22.83;;;2.80;99.90;;;;;;5029732;28;20068;-66
2022/01/14 12:19:02;;;;;;;45.38;19.15;;;3.10;99.90;;;;;;5029672;28;20049;-66
2022/01/14 12:21:49;;;;;;;41.30;20.23;;;3.40;99.90;;;;;;5015935;28;20046;-66
2022/01/14 12:24:19;;;;;;;39.65;19.58;;;3.90;99.90;;;;;;5022927;28;20606;-65
2022/01/14 12:27:17;;;;;;;37.20;19.55;;;4.30;99.90;;;;;;5027987;28;20038;-67
2022/01/14 12:29:47;;;;;;;40.30;19.95;;;4.70;99.90;;;;;;5028806;28;20045;-65
2022/01/14 12:32:19;;;;;;;43.47;18.85;;;5.00;99.90;;;;;;5026843;28;20041;-67
2022/01/14 12:34:56;;;;;;;49.58;18.38;;;5.20;99.90;;;;;;5025711;28;20050;-64
2022/01/14 12:37:26;;;;;;;50.30;21.38;;;5.40;99.90;;;;;;5027352;28;20049;-64
2022/01/14 12:39:55;;;;;;;44.45;21.52;;;5.60;99.90;;;;;;5029287;28;20504;-66
2022/01/14 12:42:24;;;;;;;60.15;29.00;;;6.10;99.90;;;;;;5028600;28;20512;-65
2022/01/14 12:44:53;;;;;;;56.97;27.60;;;6.70;99.90;;;;;;5060279;28;20045;-65
2022/01/14 12:47:26;;;;;;;56.78;26.95;;;7.20;99.90;;;;;;5028968;28;20290;-64
2022/01/14 12:49:53;;;;;;;53.72;24.40;;;7.60;99.90;;;;;;5029049;28;20779;-64
2022/01/14 12:52:38;;;;;;;42.58;20.08;;;7.90;99.90;;;;;;5015845;28;20056;-65
2022/01/14 12:55:08;;;;;;;47.63;23.27;;;8.20;99.90;;;;;;5029208;28;20049;-65
2022/01/14 12:57:36;;;;;;;47.95;21.70;;;8.50;99.90;;;;;;5029391;28;20060;-64
2022/01/14 13:00:08;;;;;;;36.05;18.30;;;8.70;99.90;;;;;;5029042;28;20489;-65
2022/01/14 13:02:36;;;;;;;41.15;18.10;;;9.00;99.90;;;;;;5028081;28;20515;-64
2022/01/14 13:05:14;;;;;;;33.90;16.95;;;9.20;99.90;;;;;;5028507;28;20068;-64
2022/01/14 13:07:42;;;;;;;41.38;16.13;;;9.60;99.90;;;;;;5013613;28;20067;-65
2022/01/14 13:10:12;;;;;;;31.00;15.20;;;9.80;99.90;;;;;;5028500;28;20531;-66
2022/01/14 13:12:43;;;;;;;;;;;10.10;99.90;;;;;;5015291;28;20516;-65
2022/01/14 13:15:16;;;;;;;33.17;14.90;;;10.50;99.90;;;;;;5027966;28;19954;-66
2022/01/14 13:18:03;;;;;;;30.83;14.52;;;10.80;99.90;;;;;;5028944;28;20045;-66
2022/01/14 13:20:32;;;;;;;18.13;10.40;;;11.20;99.90;;;;;;5025783;28;20041;-65
2022/01/14 13:23:00;;;;;;;21.25;10.55;;;11.80;99.90;;;;;;5009545;28;20375;-67
2022/01/14 13:25:33;;;;;;;24.10;10.70;;;12.10;99.90;;;;;;5020051;28;20477;-69
2022/01/14 13:28:03;;;;;;;19.20;9.85;;;12.50;99.90;;;;;;5017745;28;20495;-70